Terminal Aerodrome Forecast
Issued by NWS Wilmington, OH

Current Version | Previous Version | Graphics & Text | Print | Product List | Glossary On
Versions: 1 2 3 4 5 6 7 8 9 10 11 12 13 14 15 16 17 18 19 20 21 22 23 24
000
FTUS41 KILN 261700
TAFILN
TAF
KILN 261738Z 2618/2718 01012KT P6SM -SN BKN022 OVC035
     FM262200 36010KT P6SM BKN022 OVC035
     FM270600 33005KT P6SM SCT022=

USA.gov is the U.S. government's official web portal to all federal, state and local government web resources and services.